Kezdőlap
METAR-TAF:

METAR-TAF

Repülőterek :

Churchill, Manitoba, Kanada

földrajzi szélesség: 58-44N, földrajzi hosszúság: 094-04W, magasság: 28 m

Jelenlegi meteorológiai megfigyelések

A jelentés 17 perccel ezelõtt készült, 05:00 UTC
Nyugat-északnyugati szél 14 kt
Hőmérséklet -30°C
Páratartalom 75%
Légköri nyomás 1012 hPa
Látótávolság: 9.7 km
Derült ég
Jégtű

METAR: CYYQ 090500Z 30014KT 6SM IC SKC M30/M33 A2989 RMK SLP130

Idő: 23:17 (05:17 UTC)

Előrejelzés

A jelentés 5 órával és 39 perccel ezelõtt készült, 23:38 UTC
Az előrejelzés 09-én 00 óra UTC és 09-én 24 óra UTC között érvényes
Nyugat-északnyugati szél 12 kt széllökések: 22 kt
Látótávolság: 10 km
Kevés felhő 2000 lábon
Jégtű

TAF: CYYQ 082338Z 0900/0924 29012G22KT P6SM IC FEW020 RMK NXT FCST BY 090600Z

Meteorológiai megfigyelések és előrejelzések több, mint 4000 repülőtéren (METAR és TAF jelentéseket).

A térképen piros és sárga pontok jelzik az elérhető meteorológiai állomásokat.

Mozgassa az egeret a pont fölött, hogy megjelenjen az állomás neve.

Azután kattintson az időjárási megfigyelések és előrejelzések megtekintéséhez.

A térkép megváltoztatása: kattintson a fekete keresztel jelölt zöld gombra ráközelítéshez, a vonallal jelölt zöld gombra távolításhoz, vagy a zöld nyilakra a szomszédos térképek eléréséhez.


METAR-TAF: